PWSweather.com
Personal Weather Stations
Station Observations
KOHAVON11
Long Road Station, Avon, OH 44011

Long Road StationAvon, OH 44011

Lat: 41.437, Lon: -82.0477

Elevation: 686

Station Type: Davis Vantage Pro2

http://www.avon-weather.com

High Low Average
Temperature 23.0°F-5.0°C 2.0°F-16.7°C 12.0°F-11.1°C
Dew Point 12.8°F-10.7°C -4.3°F-20.2°C 5.0°F-15.0°C
Winds 18.0 mph 29.0 kmh 1.0 mph 1.6 kmh 5.0 mph SW8.0 kmh SW
Wind Gusts 19.0 mph30.6 kmh 5.0 mph8.0 kmh 11.0 mph17.7 kmh
Humidity 80% 64% 73%
Pressure 30.56 in1034.9 mb 30.30 in1026.1 mb -
Precipitation 0.00 in0.0 mm - -
Hour Temp Dew Point Humidity Winds Wind Gusts Pressure Precip Precip Rate Daily Precip Total
12:03 AM 2.3°F-16.5°C -4.0°F-20.0°C 74% 3.0 mph WSW4.8 kmh WSW 6.0 mph9.7 kmh 30.54 in1034.2 mb 0.00 in0.0 mm 0.00 in0.0 mm 0.00 in0.0 mm
12:08 AM 2.3°F-16.5°C -4.0°F-20.0°C 74% 3.0 mph SW4.8 kmh SW 6.0 mph9.7 kmh 30.55 in1034.5 mb 0.00 in0.0 mm 0.00 in0.0 mm 0.00 in0.0 mm
12:13 AM 2.3°F-16.5°C -4.0°F-20.0°C 74% 3.0 mph SW4.8 kmh SW 6.0 mph9.7 kmh 30.54 in1034.2 mb 0.00 in0.0 mm 0.00 in0.0 mm 0.00 in0.0 mm
12:18 AM 2.2°F-16.6°C -4.1°F-20.1°C 74% 3.0 mph WSW4.8 kmh WSW 6.0 mph9.7 kmh 30.54 in1034.2 mb 0.00 in0.0 mm 0.00 in0.0 mm 0.00 in0.0 mm
12:23 AM 2.2°F-16.6°C -4.1°F-20.1°C 74% 3.0 mph WSW4.8 kmh WSW 6.0 mph9.7 kmh 30.55 in1034.5 mb 0.00 in0.0 mm 0.00 in0.0 mm 0.00 in0.0 mm
12:28 AM 2.2°F-16.6°C -4.1°F-20.1°C 74% 4.0 mph SSW6.4 kmh SSW 5.0 mph8.0 kmh 30.54 in1034.2 mb 0.00 in0.0 mm 0.00 in0.0 mm 0.00 in0.0 mm
12:33 AM 2.2°F-16.6°C -4.1°F-20.1°C 74% 1.0 mph SW1.6 kmh SW 6.0 mph9.7 kmh 30.54 in1034.2 mb 0.00 in0.0 mm 0.00 in0.0 mm 0.00 in0.0 mm
12:38 AM 2.2°F-16.6°C -4.1°F-20.1°C 74% 3.0 mph SW4.8 kmh SW 7.0 mph11.3 kmh 30.54 in1034.2 mb 0.00 in0.0 mm 0.00 in0.0 mm 0.00 in0.0 mm
12:43 AM 2.3°F-16.5°C -4.0°F-20.0°C 74% 3.0 mph SSW4.8 kmh SSW 7.0 mph11.3 kmh 30.54 in1034.2 mb 0.00 in0.0 mm 0.00 in0.0 mm 0.00 in0.0 mm
12:48 AM 2.3°F-16.5°C -4.0°F-20.0°C 74% 5.0 mph SW8.0 kmh SW 8.0 mph12.9 kmh 30.54 in1034.2 mb 0.00 in0.0 mm 0.00 in0.0 mm 0.00 in0.0 mm
12:53 AM 2.4°F-16.4°C -3.9°F-19.9°C 74% 3.0 mph SW4.8 kmh SW 8.0 mph12.9 kmh 30.54 in1034.2 mb 0.00 in0.0 mm 0.00 in0.0 mm 0.00 in0.0 mm
12:58 AM 2.4°F-16.4°C -3.9°F-19.9°C 74% 3.0 mph SW4.8 kmh SW 8.0 mph12.9 kmh 30.54 in1034.2 mb 0.00 in0.0 mm 0.00 in0.0 mm 0.00 in0.0 mm
01:03 AM 2.4°F-16.4°C -3.9°F-19.9°C 74% 7.0 mph S11.3 kmh S 8.0 mph12.9 kmh 30.54 in1034.2 mb 0.00 in0.0 mm 0.00 in0.0 mm 0.00 in0.0 mm
01:08 AM 2.4°F-16.4°C -3.9°F-19.9°C 74% 5.0 mph S8.0 kmh S 8.0 mph12.9 kmh 30.54 in1034.2 mb 0.00 in0.0 mm 0.00 in0.0 mm 0.00 in0.0 mm
01:13 AM 2.3°F-16.5°C -4.0°F-20.0°C 74% 4.0 mph SSW6.4 kmh SSW 8.0 mph12.9 kmh 30.54 in1034.2 mb 0.00 in0.0 mm 0.00 in0.0 mm 0.00 in0.0 mm
01:18 AM 2.2°F-16.6°C -4.1°F-20.1°C 74% 5.0 mph S8.0 kmh S 8.0 mph12.9 kmh 30.54 in1034.2 mb 0.00 in0.0 mm 0.00 in0.0 mm 0.00 in0.0 mm
01:23 AM 2.1°F-16.6°C -4.2°F-20.1°C 74% 6.0 mph S9.7 kmh S 8.0 mph12.9 kmh 30.54 in1034.2 mb 0.00 in0.0 mm 0.00 in0.0 mm 0.00 in0.0 mm
01:28 AM 2.0°F-16.7°C -4.3°F-20.2°C 74% 6.0 mph SSW9.7 kmh SSW 8.0 mph12.9 kmh 30.54 in1034.2 mb 0.00 in0.0 mm 0.00 in0.0 mm 0.00 in0.0 mm
01:33 AM 2.0°F-16.7°C -4.3°F-20.2°C 74% 5.0 mph SSW8.0 kmh SSW 8.0 mph12.9 kmh 30.54 in1034.2 mb 0.00 in0.0 mm 0.00 in0.0 mm 0.00 in0.0 mm
01:38 AM 2.1°F-16.6°C -4.0°F-20.0°C 75% 6.0 mph SSW9.7 kmh SSW 10.0 mph16.1 kmh 30.54 in1034.2 mb 0.00 in0.0 mm 0.00 in0.0 mm 0.00 in0.0 mm
01:43 AM 2.2°F-16.6°C -3.9°F-19.9°C 75% 7.0 mph S11.3 kmh S 10.0 mph16.1 kmh 30.54 in1034.2 mb 0.00 in0.0 mm 0.00 in0.0 mm 0.00 in0.0 mm
01:48 AM 2.3°F-16.5°C -3.8°F-19.9°C 75% 2.0 mph SW3.2 kmh SW 10.0 mph16.1 kmh 30.54 in1034.2 mb 0.00 in0.0 mm 0.00 in0.0 mm 0.00 in0.0 mm
01:53 AM 2.4°F-16.4°C -3.7°F-19.8°C 75% 3.0 mph SSW4.8 kmh SSW 10.0 mph16.1 kmh 30.54 in1034.2 mb 0.00 in0.0 mm 0.00 in0.0 mm 0.00 in0.0 mm
01:58 AM 2.4°F-16.4°C -3.7°F-19.8°C 75% 6.0 mph SSW9.7 kmh SSW 12.0 mph19.3 kmh 30.54 in1034.2 mb 0.00 in0.0 mm 0.00 in0.0 mm 0.00 in0.0 mm
02:03 AM 2.4°F-16.4°C -3.7°F-19.8°C 75% 4.0 mph WSW6.4 kmh WSW 12.0 mph19.3 kmh 30.54 in1034.2 mb 0.00 in0.0 mm 0.00 in0.0 mm 0.00 in0.0 mm
02:08 AM 2.5°F-16.4°C -3.6°F-19.8°C 75% 2.0 mph WSW3.2 kmh WSW 12.0 mph19.3 kmh 30.54 in1034.2 mb 0.00 in0.0 mm 0.00 in0.0 mm 0.00 in0.0 mm
02:13 AM 2.6°F-16.3°C -3.5°F-19.7°C 75% 10.0 mph SW16.1 kmh SW 12.0 mph19.3 kmh 30.54 in1034.2 mb 0.00 in0.0 mm 0.00 in0.0 mm 0.00 in0.0 mm
02:18 AM 2.6°F-16.3°C -3.5°F-19.7°C 75% 4.0 mph SSW6.4 kmh SSW 11.0 mph17.7 kmh 30.55 in1034.5 mb 0.00 in0.0 mm 0.00 in0.0 mm 0.00 in0.0 mm
02:23 AM 2.7°F-16.3°C -3.4°F-19.7°C 75% 3.0 mph WSW4.8 kmh WSW 11.0 mph17.7 kmh 30.54 in1034.2 mb 0.00 in0.0 mm 0.00 in0.0 mm 0.00 in0.0 mm
02:28 AM 2.7°F-16.3°C -3.4°F-19.7°C 75% 4.0 mph SW6.4 kmh SW 10.0 mph16.1 kmh 30.55 in1034.5 mb 0.00 in0.0 mm 0.00 in0.0 mm 0.00 in0.0 mm
02:33 AM 2.7°F-16.3°C -3.4°F-19.7°C 75% 5.0 mph S8.0 kmh S 10.0 mph16.1 kmh 30.55 in1034.5 mb 0.00 in0.0 mm 0.00 in0.0 mm 0.00 in0.0 mm
02:38 AM 2.8°F-16.2°C -3.3°F-19.6°C 75% 5.0 mph SSW8.0 kmh SSW 10.0 mph16.1 kmh 30.55 in1034.5 mb 0.00 in0.0 mm 0.00 in0.0 mm 0.00 in0.0 mm
02:43 AM 2.8°F-16.2°C -3.3°F-19.6°C 75% 4.0 mph SSW6.4 kmh SSW 10.0 mph16.1 kmh 30.55 in1034.5 mb 0.00 in0.0 mm 0.00 in0.0 mm 0.00 in0.0 mm
02:48 AM 2.8°F-16.2°C -3.3°F-19.6°C 75% 3.0 mph SW4.8 kmh SW 9.0 mph14.5 kmh 30.55 in1034.5 mb 0.00 in0.0 mm 0.00 in0.0 mm 0.00 in0.0 mm
02:53 AM 2.8°F-16.2°C -3.3°F-19.6°C 75% 3.0 mph SW4.8 kmh SW 9.0 mph14.5 kmh 30.55 in1034.5 mb 0.00 in0.0 mm 0.00 in0.0 mm 0.00 in0.0 mm
02:58 AM 2.8°F-16.2°C -3.3°F-19.6°C 75% 3.0 mph WSW4.8 kmh WSW 9.0 mph14.5 kmh 30.54 in1034.2 mb 0.00 in0.0 mm 0.00 in0.0 mm 0.00 in0.0 mm
03:03 AM 2.9°F-16.2°C -3.2°F-19.6°C 75% 3.0 mph SW4.8 kmh SW 10.0 mph16.1 kmh 30.55 in1034.5 mb 0.00 in0.0 mm 0.00 in0.0 mm 0.00 in0.0 mm
03:08 AM 2.9°F-16.2°C -3.2°F-19.6°C 75% 4.0 mph SW6.4 kmh SW 10.0 mph16.1 kmh 30.55 in1034.5 mb 0.00 in0.0 mm 0.00 in0.0 mm 0.00 in0.0 mm
03:13 AM 2.9°F-16.2°C -3.2°F-19.6°C 75% 3.0 mph SW4.8 kmh SW 10.0 mph16.1 kmh 30.55 in1034.5 mb 0.00 in0.0 mm 0.00 in0.0 mm 0.00 in0.0 mm
03:18 AM 2.9°F-16.2°C -3.2°F-19.6°C 75% 3.0 mph S4.8 kmh S 10.0 mph16.1 kmh 30.55 in1034.5 mb 0.00 in0.0 mm 0.00 in0.0 mm 0.00 in0.0 mm
03:23 AM 2.8°F-16.2°C -3.3°F-19.6°C 75% 3.0 mph SSW4.8 kmh SSW 9.0 mph14.5 kmh 30.55 in1034.5 mb 0.00 in0.0 mm 0.00 in0.0 mm 0.00 in0.0 mm
03:28 AM 2.7°F-16.3°C -3.4°F-19.7°C 75% 4.0 mph S6.4 kmh S 9.0 mph14.5 kmh 30.55 in1034.5 mb 0.00 in0.0 mm 0.00 in0.0 mm 0.00 in0.0 mm
03:33 AM 2.7°F-16.3°C -3.4°F-19.7°C 75% 2.0 mph SW3.2 kmh SW 7.0 mph11.3 kmh 30.55 in1034.5 mb 0.00 in0.0 mm 0.00 in0.0 mm 0.00 in0.0 mm
03:38 AM 2.7°F-16.3°C -3.4°F-19.7°C 75% 3.0 mph SW4.8 kmh SW 7.0 mph11.3 kmh 30.55 in1034.5 mb 0.00 in0.0 mm 0.00 in0.0 mm 0.00 in0.0 mm
03:43 AM 2.6°F-16.3°C -3.5°F-19.7°C 75% 6.0 mph S9.7 kmh S 7.0 mph11.3 kmh 30.55 in1034.5 mb 0.00 in0.0 mm 0.00 in0.0 mm 0.00 in0.0 mm
03:48 AM 2.5°F-16.4°C -3.6°F-19.8°C 75% 4.0 mph SW6.4 kmh SW 7.0 mph11.3 kmh 30.55 in1034.5 mb 0.00 in0.0 mm 0.00 in0.0 mm 0.00 in0.0 mm
03:53 AM 2.5°F-16.4°C -3.6°F-19.8°C 75% 6.0 mph SSW9.7 kmh SSW 8.0 mph12.9 kmh 30.55 in1034.5 mb 0.00 in0.0 mm 0.00 in0.0 mm 0.00 in0.0 mm
03:58 AM 2.4°F-16.4°C -3.7°F-19.8°C 75% 4.0 mph SSW6.4 kmh SSW 8.0 mph12.9 kmh 30.55 in1034.5 mb 0.00 in0.0 mm 0.00 in0.0 mm 0.00 in0.0 mm
04:03 AM 2.3°F-16.5°C -3.8°F-19.9°C 75% 5.0 mph SW8.0 kmh SW 8.0 mph12.9 kmh 30.55 in1034.5 mb 0.00 in0.0 mm 0.00 in0.0 mm 0.00 in0.0 mm
04:08 AM 2.2°F-16.6°C -3.9°F-19.9°C 75% 4.0 mph SSW6.4 kmh SSW 8.0 mph12.9 kmh 30.55 in1034.5 mb 0.00 in0.0 mm 0.00 in0.0 mm 0.00 in0.0 mm
04:13 AM 2.1°F-16.6°C -4.0°F-20.0°C 75% 3.0 mph SSW4.8 kmh SSW 7.0 mph11.3 kmh 30.55 in1034.5 mb 0.00 in0.0 mm 0.00 in0.0 mm 0.00 in0.0 mm
04:18 AM 2.0°F-16.7°C -4.0°F-20.0°C 75% 4.0 mph S6.4 kmh S 7.0 mph11.3 kmh 30.55 in1034.5 mb 0.00 in0.0 mm 0.00 in0.0 mm 0.00 in0.0 mm
04:23 AM 2.0°F-16.7°C -4.0°F-20.0°C 75% 4.0 mph S6.4 kmh S 5.0 mph8.0 kmh 30.55 in1034.5 mb 0.00 in0.0 mm 0.00 in0.0 mm 0.00 in0.0 mm
04:28 AM 2.0°F-16.7°C -4.0°F-20.0°C 75% 5.0 mph SSW8.0 kmh SSW 6.0 mph9.7 kmh 30.55 in1034.5 mb 0.00 in0.0 mm 0.00 in0.0 mm 0.00 in0.0 mm
04:33 AM 2.1°F-16.6°C -3.7°F-19.8°C 76% 4.0 mph S6.4 kmh S 6.0 mph9.7 kmh 30.55 in1034.5 mb 0.00 in0.0 mm 0.00 in0.0 mm 0.00 in0.0 mm
04:38 AM 2.5°F-16.4°C -3.3°F-19.6°C 76% 3.0 mph SSW4.8 kmh SSW 7.0 mph11.3 kmh 30.55 in1034.5 mb 0.00 in0.0 mm 0.00 in0.0 mm 0.00 in0.0 mm
04:43 AM 2.8°F-16.2°C -3.0°F-19.4°C 76% 6.0 mph S9.7 kmh S 7.0 mph11.3 kmh 30.55 in1034.5 mb 0.00 in0.0 mm 0.00 in0.0 mm 0.00 in0.0 mm
04:48 AM 3.4°F-15.9°C -2.1°F-18.9°C 77% 4.0 mph SSW6.4 kmh SSW 8.0 mph12.9 kmh 30.55 in1034.5 mb 0.00 in0.0 mm 0.00 in0.0 mm 0.00 in0.0 mm
04:53 AM 3.9°F-15.6°C -1.6°F-18.7°C 77% 4.0 mph SSW6.4 kmh SSW 8.0 mph12.9 kmh 30.55 in1034.5 mb 0.00 in0.0 mm 0.00 in0.0 mm 0.00 in0.0 mm
04:58 AM 4.3°F-15.4°C -1.3°F-18.5°C 77% 4.0 mph SSW6.4 kmh SSW 8.0 mph12.9 kmh 30.55 in1034.5 mb 0.00 in0.0 mm 0.00 in0.0 mm 0.00 in0.0 mm
05:03 AM 4.7°F-15.2°C -0.6°F-18.1°C 78% 6.0 mph S9.7 kmh S 9.0 mph14.5 kmh 30.55 in1034.5 mb 0.00 in0.0 mm 0.00 in0.0 mm 0.00 in0.0 mm
05:08 AM 4.9°F-15.1°C -0.4°F-18.0°C 78% 4.0 mph SSW6.4 kmh SSW 9.0 mph14.5 kmh 30.55 in1034.5 mb 0.00 in0.0 mm 0.00 in0.0 mm 0.00 in0.0 mm
05:13 AM 5.2°F-14.9°C -0.1°F-17.8°C 78% 5.0 mph SW8.0 kmh SW 9.0 mph14.5 kmh 30.55 in1034.5 mb 0.00 in0.0 mm 0.00 in0.0 mm 0.00 in0.0 mm
05:18 AM 5.4°F-14.8°C 0.1°F-17.7°C 78% 7.0 mph S11.3 kmh S 9.0 mph14.5 kmh 30.55 in1034.5 mb 0.00 in0.0 mm 0.00 in0.0 mm 0.00 in0.0 mm
05:23 AM 5.6°F-14.7°C 0.3°F-17.6°C 78% 4.0 mph SW6.4 kmh SW 10.0 mph16.1 kmh 30.55 in1034.5 mb 0.00 in0.0 mm 0.00 in0.0 mm 0.00 in0.0 mm
05:28 AM 5.7°F-14.6°C 0.4°F-17.6°C 78% 3.0 mph SSW4.8 kmh SSW 10.0 mph16.1 kmh 30.55 in1034.5 mb 0.00 in0.0 mm 0.00 in0.0 mm 0.00 in0.0 mm
05:33 AM 5.7°F-14.6°C 0.1°F-17.7°C 77% 3.0 mph SW4.8 kmh SW 10.0 mph16.1 kmh 30.55 in1034.5 mb 0.00 in0.0 mm 0.00 in0.0 mm 0.00 in0.0 mm
05:38 AM 5.8°F-14.6°C 0.2°F-17.7°C 77% 3.0 mph SW4.8 kmh SW 10.0 mph16.1 kmh 30.55 in1034.5 mb 0.00 in0.0 mm 0.00 in0.0 mm 0.00 in0.0 mm
05:43 AM 5.8°F-14.6°C 0.2°F-17.7°C 77% 2.0 mph SW3.2 kmh SW 7.0 mph11.3 kmh 30.55 in1034.5 mb 0.00 in0.0 mm 0.00 in0.0 mm 0.00 in0.0 mm
05:48 AM 5.8°F-14.6°C 0.2°F-17.7°C 77% 2.0 mph SW3.2 kmh SW 7.0 mph11.3 kmh 30.55 in1034.5 mb 0.00 in0.0 mm 0.00 in0.0 mm 0.00 in0.0 mm
05:53 AM 5.8°F-14.6°C 0.2°F-17.7°C 77% 3.0 mph WSW4.8 kmh WSW 7.0 mph11.3 kmh 30.55 in1034.5 mb 0.00 in0.0 mm 0.00 in0.0 mm 0.00 in0.0 mm
05:58 AM 5.8°F-14.6°C 0.2°F-17.7°C 77% 3.0 mph SSW4.8 kmh SSW 7.0 mph11.3 kmh 30.55 in1034.5 mb 0.00 in0.0 mm 0.00 in0.0 mm 0.00 in0.0 mm
06:03 AM 5.7°F-14.6°C 0.1°F-17.7°C 77% 3.0 mph SSW4.8 kmh SSW 8.0 mph12.9 kmh 30.55 in1034.5 mb 0.00 in0.0 mm 0.00 in0.0 mm 0.00 in0.0 mm
06:08 AM 5.7°F-14.6°C 0.1°F-17.7°C 77% 2.0 mph SW3.2 kmh SW 8.0 mph12.9 kmh 30.56 in1034.9 mb 0.00 in0.0 mm 0.00 in0.0 mm 0.00 in0.0 mm
06:13 AM 5.8°F-14.6°C 0.2°F-17.7°C 77% 3.0 mph SW4.8 kmh SW 8.0 mph12.9 kmh 30.56 in1034.9 mb 0.00 in0.0 mm 0.00 in0.0 mm 0.00 in0.0 mm
06:18 AM 5.9°F-14.5°C 0.3°F-17.6°C 77% 3.0 mph SSE4.8 kmh SSE 8.0 mph12.9 kmh 30.56 in1034.9 mb 0.00 in0.0 mm 0.00 in0.0 mm 0.00 in0.0 mm
06:23 AM 6.1°F-14.4°C 0.5°F-17.5°C 77% 6.0 mph S9.7 kmh S 9.0 mph14.5 kmh 30.56 in1034.9 mb 0.00 in0.0 mm 0.00 in0.0 mm 0.00 in0.0 mm
06:28 AM 6.3°F-14.3°C 1.0°F-17.2°C 78% 6.0 mph SSW9.7 kmh SSW 9.0 mph14.5 kmh 30.56 in1034.9 mb 0.00 in0.0 mm 0.00 in0.0 mm 0.00 in0.0 mm
06:33 AM 6.5°F-14.2°C 1.2°F-17.1°C 78% 2.0 mph SW3.2 kmh SW 9.0 mph14.5 kmh 30.55 in1034.5 mb 0.00 in0.0 mm 0.00 in0.0 mm 0.00 in0.0 mm
06:38 AM 6.7°F-14.1°C 1.4°F-17.0°C 78% 5.0 mph SW8.0 kmh SW 10.0 mph16.1 kmh 30.55 in1034.5 mb 0.00 in0.0 mm 0.00 in0.0 mm 0.00 in0.0 mm
06:43 AM 6.8°F-14.0°C 1.5°F-16.9°C 78% 4.0 mph SSW6.4 kmh SSW 11.0 mph17.7 kmh 30.55 in1034.5 mb 0.00 in0.0 mm 0.00 in0.0 mm 0.00 in0.0 mm
06:48 AM 6.9°F-13.9°C 1.5°F-16.9°C 78% 5.0 mph SSW8.0 kmh SSW 11.0 mph17.7 kmh 30.55 in1034.5 mb 0.00 in0.0 mm 0.00 in0.0 mm 0.00 in0.0 mm
06:53 AM 6.9°F-13.9°C 1.5°F-16.9°C 78% 4.0 mph SSW6.4 kmh SSW 11.0 mph17.7 kmh 30.55 in1034.5 mb 0.00 in0.0 mm 0.00 in0.0 mm 0.00 in0.0 mm
06:58 AM 7.0°F-13.9°C 1.6°F-16.9°C 78% 5.0 mph SSW8.0 kmh SSW 12.0 mph19.3 kmh 30.55 in1034.5 mb 0.00 in0.0 mm 0.00 in0.0 mm 0.00 in0.0 mm
07:03 AM 7.0°F-13.9°C 1.6°F-16.9°C 78% 2.0 mph SW3.2 kmh SW 12.0 mph19.3 kmh 30.55 in1034.5 mb 0.00 in0.0 mm 0.00 in0.0 mm 0.00 in0.0 mm
07:08 AM 7.0°F-13.9°C 1.6°F-16.9°C 78% 2.0 mph WSW3.2 kmh WSW 12.0 mph19.3 kmh 30.55 in1034.5 mb 0.00 in0.0 mm 0.00 in0.0 mm 0.00 in0.0 mm
07:13 AM 7.1°F-13.8°C 1.7°F-16.8°C 78% 2.0 mph S3.2 kmh S 12.0 mph19.3 kmh 30.55 in1034.5 mb 0.00 in0.0 mm 0.00 in0.0 mm 0.00 in0.0 mm
07:18 AM 7.2°F-13.8°C 1.8°F-16.8°C 78% 6.0 mph SSW9.7 kmh SSW 7.0 mph11.3 kmh 30.55 in1034.5 mb 0.00 in0.0 mm 0.00 in0.0 mm 0.00 in0.0 mm
07:23 AM 7.3°F-13.7°C 1.9°F-16.7°C 78% 3.0 mph SW4.8 kmh SW 7.0 mph11.3 kmh 30.55 in1034.5 mb 0.00 in0.0 mm 0.00 in0.0 mm 0.00 in0.0 mm
07:28 AM 7.4°F-13.7°C 2.0°F-16.7°C 78% 5.0 mph SSW8.0 kmh SSW 7.0 mph11.3 kmh 30.55 in1034.5 mb 0.00 in0.0 mm 0.00 in0.0 mm 0.00 in0.0 mm
07:33 AM 7.4°F-13.7°C 2.0°F-16.7°C 78% 5.0 mph S8.0 kmh S 9.0 mph14.5 kmh 30.55 in1034.5 mb 0.00 in0.0 mm 0.00 in0.0 mm 0.00 in0.0 mm
07:38 AM 7.4°F-13.7°C 2.0°F-16.7°C 78% 3.0 mph SSW4.8 kmh SSW 9.0 mph14.5 kmh 30.55 in1034.5 mb 0.00 in0.0 mm 0.00 in0.0 mm 0.00 in0.0 mm
07:43 AM 7.3°F-13.7°C 1.9°F-16.7°C 78% 5.0 mph S8.0 kmh S 9.0 mph14.5 kmh 30.55 in1034.5 mb 0.00 in0.0 mm 0.00 in0.0 mm 0.00 in0.0 mm
07:48 AM 7.1°F-13.8°C 1.7°F-16.8°C 78% 5.0 mph SSW8.0 kmh SSW 9.0 mph14.5 kmh 30.55 in1034.5 mb 0.00 in0.0 mm 0.00 in0.0 mm 0.00 in0.0 mm
07:53 AM 6.9°F-13.9°C 1.3°F-17.1°C 77% 4.0 mph S6.4 kmh S 6.0 mph9.7 kmh 30.55 in1034.5 mb 0.00 in0.0 mm 0.00 in0.0 mm 0.00 in0.0 mm
07:58 AM 6.7°F-14.1°C 1.1°F-17.2°C 77% 2.0 mph SSW3.2 kmh SSW 6.0 mph9.7 kmh 30.55 in1034.5 mb 0.00 in0.0 mm 0.00 in0.0 mm 0.00 in0.0 mm
08:03 AM 6.6°F-14.1°C 1.0°F-17.2°C 77% 5.0 mph SSW8.0 kmh SSW 6.0 mph9.7 kmh 30.55 in1034.5 mb 0.00 in0.0 mm 0.00 in0.0 mm 0.00 in0.0 mm
08:08 AM 6.6°F-14.1°C 1.3°F-17.1°C 78% 3.0 mph SSW4.8 kmh SSW 6.0 mph9.7 kmh 30.55 in1034.5 mb 0.00 in0.0 mm 0.00 in0.0 mm 0.00 in0.0 mm
08:13 AM 6.6°F-14.1°C 1.3°F-17.1°C 78% 4.0 mph SSW6.4 kmh SSW 6.0 mph9.7 kmh 30.55 in1034.5 mb 0.00 in0.0 mm 0.00 in0.0 mm 0.00 in0.0 mm
08:18 AM 6.7°F-14.1°C 1.4°F-17.0°C 78% 2.0 mph SW3.2 kmh SW 6.0 mph9.7 kmh 30.56 in1034.9 mb 0.00 in0.0 mm 0.00 in0.0 mm 0.00 in0.0 mm
08:23 AM 6.8°F-14.0°C 1.5°F-16.9°C 78% 3.0 mph WSW4.8 kmh WSW 6.0 mph9.7 kmh 30.56 in1034.9 mb 0.00 in0.0 mm 0.00 in0.0 mm 0.00 in0.0 mm
08:28 AM 6.9°F-13.9°C 1.5°F-16.9°C 78% 2.0 mph SW3.2 kmh SW 6.0 mph9.7 kmh 30.55 in1034.5 mb 0.00 in0.0 mm 0.00 in0.0 mm 0.00 in0.0 mm
08:33 AM 7.0°F-13.9°C 1.9°F-16.7°C 79% 2.0 mph SW3.2 kmh SW 5.0 mph8.0 kmh 30.56 in1034.9 mb 0.00 in0.0 mm 0.00 in0.0 mm 0.00 in0.0 mm
08:38 AM 7.2°F-13.8°C 2.1°F-16.6°C 79% 5.0 mph S8.0 kmh S 7.0 mph11.3 kmh 30.56 in1034.9 mb 0.00 in0.0 mm 0.00 in0.0 mm 0.00 in0.0 mm
08:43 AM 7.4°F-13.7°C 2.3°F-16.5°C 79% 2.0 mph SW3.2 kmh SW 7.0 mph11.3 kmh 30.56 in1034.9 mb 0.00 in0.0 mm 0.00 in0.0 mm 0.00 in0.0 mm
08:48 AM 7.6°F-13.6°C 2.5°F-16.4°C 79% 5.0 mph SSW8.0 kmh SSW 7.0 mph11.3 kmh 30.55 in1034.5 mb 0.00 in0.0 mm 0.00 in0.0 mm 0.00 in0.0 mm
08:53 AM 7.9°F-13.4°C 2.8°F-16.2°C 79% 3.0 mph SW4.8 kmh SW 8.0 mph12.9 kmh 30.55 in1034.5 mb 0.00 in0.0 mm 0.00 in0.0 mm 0.00 in0.0 mm
08:58 AM 8.3°F-13.2°C 3.5°F-15.8°C 80% 5.0 mph SSW8.0 kmh SSW 11.0 mph17.7 kmh 30.55 in1034.5 mb 0.00 in0.0 mm 0.00 in0.0 mm 0.00 in0.0 mm
09:03 AM 8.6°F-13.0°C 3.8°F-15.7°C 80% 5.0 mph SSW8.0 kmh SSW 11.0 mph17.7 kmh 30.55 in1034.5 mb 0.00 in0.0 mm 0.00 in0.0 mm 0.00 in0.0 mm
09:08 AM 8.9°F-12.8°C 4.0°F-15.6°C 80% 5.0 mph SW8.0 kmh SW 11.0 mph17.7 kmh 30.55 in1034.5 mb 0.00 in0.0 mm 0.00 in0.0 mm 0.00 in0.0 mm
09:13 AM 9.3°F-12.6°C 4.4°F-15.3°C 80% 4.0 mph WSW6.4 kmh WSW 11.0 mph17.7 kmh 30.55 in1034.5 mb 0.00 in0.0 mm 0.00 in0.0 mm 0.00 in0.0 mm
09:18 AM 9.5°F-12.5°C 4.6°F-15.2°C 80% 3.0 mph SW4.8 kmh SW 10.0 mph16.1 kmh 30.55 in1034.5 mb 0.00 in0.0 mm 0.00 in0.0 mm 0.00 in0.0 mm
09:23 AM 9.8°F-12.3°C 4.6°F-15.2°C 79% 11.0 mph SSW17.7 kmh SSW 11.0 mph17.7 kmh 30.55 in1034.5 mb 0.00 in0.0 mm 0.00 in0.0 mm 0.00 in0.0 mm
09:28 AM 10.0°F-12.2°C 4.8°F-15.1°C 79% 8.0 mph WSW12.9 kmh WSW 14.0 mph22.5 kmh 30.55 in1034.5 mb 0.00 in0.0 mm 0.00 in0.0 mm 0.00 in0.0 mm
09:33 AM 10.3°F-12.1°C 5.1°F-14.9°C 79% 11.0 mph WSW17.7 kmh WSW 14.0 mph22.5 kmh 30.55 in1034.5 mb 0.00 in0.0 mm 0.00 in0.0 mm 0.00 in0.0 mm
09:38 AM 10.6°F-11.9°C 5.4°F-14.8°C 79% 5.0 mph SSW8.0 kmh SSW 14.0 mph22.5 kmh 30.55 in1034.5 mb 0.00 in0.0 mm 0.00 in0.0 mm 0.00 in0.0 mm
09:43 AM 10.9°F-11.7°C 5.7°F-14.6°C 79% 11.0 mph SW17.7 kmh SW 14.0 mph22.5 kmh 30.55 in1034.5 mb 0.00 in0.0 mm 0.00 in0.0 mm 0.00 in0.0 mm
09:48 AM 11.2°F-11.6°C 6.0°F-14.4°C 79% 10.0 mph WSW16.1 kmh WSW 14.0 mph22.5 kmh 30.56 in1034.9 mb 0.00 in0.0 mm 0.00 in0.0 mm 0.00 in0.0 mm
09:53 AM 11.4°F-11.4°C 5.9°F-14.5°C 78% 9.0 mph WSW14.5 kmh WSW 14.0 mph22.5 kmh 30.56 in1034.9 mb 0.00 in0.0 mm 0.00 in0.0 mm 0.00 in0.0 mm
09:58 AM 11.7°F-11.3°C 6.2°F-14.3°C 78% 13.0 mph SW20.9 kmh SW 15.0 mph24.1 kmh 30.56 in1034.9 mb 0.00 in0.0 mm 0.00 in0.0 mm 0.00 in0.0 mm
10:03 AM 11.9°F-11.2°C 6.1°F-14.4°C 77% 12.0 mph SW19.3 kmh SW 16.0 mph25.7 kmh 30.56 in1034.9 mb 0.00 in0.0 mm 0.00 in0.0 mm 0.00 in0.0 mm
10:08 AM 12.1°F-11.1°C 6.3°F-14.3°C 77% 15.0 mph SW24.1 kmh SW 16.0 mph25.7 kmh 30.56 in1034.9 mb 0.00 in0.0 mm 0.00 in0.0 mm 0.00 in0.0 mm
10:13 AM 12.4°F-10.9°C 6.6°F-14.1°C 77% 11.0 mph WSW17.7 kmh WSW 17.0 mph27.4 kmh 30.56 in1034.9 mb 0.00 in0.0 mm 0.00 in0.0 mm 0.00 in0.0 mm
10:18 AM 12.8°F-10.7°C 7.0°F-13.9°C 77% 7.0 mph WSW11.3 kmh WSW 17.0 mph27.4 kmh 30.56 in1034.9 mb 0.00 in0.0 mm 0.00 in0.0 mm 0.00 in0.0 mm
10:23 AM 13.0°F-10.6°C 7.2°F-13.8°C 77% 12.0 mph WSW19.3 kmh WSW 17.0 mph27.4 kmh 30.56 in1034.9 mb 0.00 in0.0 mm 0.00 in0.0 mm 0.00 in0.0 mm
10:28 AM 13.4°F-10.3°C 7.3°F-13.7°C 76% 13.0 mph SW20.9 kmh SW 17.0 mph27.4 kmh 30.56 in1034.9 mb 0.00 in0.0 mm 0.00 in0.0 mm 0.00 in0.0 mm
10:33 AM 13.7°F-10.2°C 7.6°F-13.6°C 76% 10.0 mph SW16.1 kmh SW 16.0 mph25.7 kmh 30.56 in1034.9 mb 0.00 in0.0 mm 0.00 in0.0 mm 0.00 in0.0 mm
10:38 AM 14.0°F-10.0°C 7.5°F-13.6°C 75% 7.0 mph WSW11.3 kmh WSW 16.0 mph25.7 kmh 30.56 in1034.9 mb 0.00 in0.0 mm 0.00 in0.0 mm 0.00 in0.0 mm
10:43 AM 14.4°F-9.8°C 7.9°F-13.4°C 75% 7.0 mph W11.3 kmh W 12.0 mph19.3 kmh 30.56 in1034.9 mb 0.00 in0.0 mm 0.00 in0.0 mm 0.00 in0.0 mm
10:48 AM 14.9°F-9.5°C 8.4°F-13.1°C 75% 7.0 mph SW11.3 kmh SW 12.0 mph19.3 kmh 30.56 in1034.9 mb 0.00 in0.0 mm 0.00 in0.0 mm 0.00 in0.0 mm
10:53 AM 15.3°F-9.3°C 8.5°F-13.1°C 74% 5.0 mph SW8.0 kmh SW 11.0 mph17.7 kmh 30.56 in1034.9 mb 0.00 in0.0 mm 0.00 in0.0 mm 0.00 in0.0 mm
10:58 AM 15.8°F-9.0°C 9.0°F-12.8°C 74% 7.0 mph SW11.3 kmh SW 12.0 mph19.3 kmh 30.56 in1034.9 mb 0.00 in0.0 mm 0.00 in0.0 mm 0.00 in0.0 mm
11:03 AM 16.2°F-8.8°C 9.1°F-12.7°C 73% 9.0 mph SW14.5 kmh SW 12.0 mph19.3 kmh 30.55 in1034.5 mb 0.00 in0.0 mm 0.00 in0.0 mm 0.00 in0.0 mm
11:08 AM 16.6°F-8.6°C 9.1°F-12.7°C 72% 9.0 mph SW14.5 kmh SW 14.0 mph22.5 kmh 30.55 in1034.5 mb 0.00 in0.0 mm 0.00 in0.0 mm 0.00 in0.0 mm
11:13 AM 16.9°F-8.4°C 9.4°F-12.6°C 72% 9.0 mph SW14.5 kmh SW 14.0 mph22.5 kmh 30.55 in1034.5 mb 0.00 in0.0 mm 0.00 in0.0 mm 0.00 in0.0 mm
11:18 AM 17.3°F-8.2°C 9.5°F-12.5°C 71% 10.0 mph SW16.1 kmh SW 14.0 mph22.5 kmh 30.55 in1034.5 mb 0.00 in0.0 mm 0.00 in0.0 mm 0.00 in0.0 mm
11:23 AM 17.5°F-8.1°C 9.7°F-12.4°C 71% 12.0 mph SW19.3 kmh SW 14.0 mph22.5 kmh 30.55 in1034.5 mb 0.00 in0.0 mm 0.00 in0.0 mm 0.00 in0.0 mm
11:28 AM 17.8°F-7.9°C 10.0°F-12.2°C 71% 11.0 mph SW17.7 kmh SW 13.0 mph20.9 kmh 30.55 in1034.5 mb 0.00 in0.0 mm 0.00 in0.0 mm 0.00 in0.0 mm
11:33 AM 18.3°F-7.6°C 10.4°F-12.0°C 71% 12.0 mph SW19.3 kmh SW 13.0 mph20.9 kmh 30.55 in1034.5 mb 0.00 in0.0 mm 0.00 in0.0 mm 0.00 in0.0 mm
11:38 AM 18.8°F-7.3°C 10.6°F-11.9°C 70% 6.0 mph WSW9.7 kmh WSW 13.0 mph20.9 kmh 30.54 in1034.2 mb 0.00 in0.0 mm 0.00 in0.0 mm 0.00 in0.0 mm
11:43 AM 19.2°F-7.1°C 11.0°F-11.7°C 70% 7.0 mph SW11.3 kmh SW 13.0 mph20.9 kmh 30.54 in1034.2 mb 0.00 in0.0 mm 0.00 in0.0 mm 0.00 in0.0 mm
11:48 AM 19.7°F-6.8°C 11.1°F-11.6°C 69% 11.0 mph WSW17.7 kmh WSW 13.0 mph20.9 kmh 30.54 in1034.2 mb 0.00 in0.0 mm 0.00 in0.0 mm 0.00 in0.0 mm
11:53 AM 20.1°F-6.6°C 11.2°F-11.6°C 68% 5.0 mph WSW8.0 kmh WSW 13.0 mph20.9 kmh 30.54 in1034.2 mb 0.00 in0.0 mm 0.00 in0.0 mm 0.00 in0.0 mm
11:58 AM 20.3°F-6.5°C 11.4°F-11.4°C 68% 6.0 mph WSW9.7 kmh WSW 13.0 mph20.9 kmh 30.53 in1033.9 mb 0.00 in0.0 mm 0.00 in0.0 mm 0.00 in0.0 mm
12:03 PM 20.5°F-6.4°C 11.2°F-11.6°C 67% 9.0 mph SW14.5 kmh SW 13.0 mph20.9 kmh 30.53 in1033.9 mb 0.00 in0.0 mm 0.00 in0.0 mm 0.00 in0.0 mm
12:08 PM 20.8°F-6.2°C 11.8°F-11.2°C 68% 3.0 mph SW4.8 kmh SW 12.0 mph19.3 kmh 30.52 in1033.5 mb 0.00 in0.0 mm 0.00 in0.0 mm 0.00 in0.0 mm
12:13 PM 21.1°F-6.1°C 11.8°F-11.2°C 67% 6.0 mph SSW9.7 kmh SSW 12.0 mph19.3 kmh 30.52 in1033.5 mb 0.00 in0.0 mm 0.00 in0.0 mm 0.00 in0.0 mm
12:18 PM 21.3°F-5.9°C 12.0°F-11.1°C 67% 3.0 mph WSW4.8 kmh WSW 8.0 mph12.9 kmh 30.52 in1033.5 mb 0.00 in0.0 mm 0.00 in0.0 mm 0.00 in0.0 mm
12:23 PM 21.5°F-5.8°C 12.2°F-11.0°C 67% 5.0 mph SW8.0 kmh SW 10.0 mph16.1 kmh 30.52 in1033.5 mb 0.00 in0.0 mm 0.00 in0.0 mm 0.00 in0.0 mm
12:28 PM 21.5°F-5.8°C 12.2°F-11.0°C 67% 5.0 mph WSW8.0 kmh WSW 10.0 mph16.1 kmh 30.52 in1033.5 mb 0.00 in0.0 mm 0.00 in0.0 mm 0.00 in0.0 mm
12:33 PM 21.8°F-5.7°C 12.1°F-11.1°C 66% 4.0 mph SW6.4 kmh SW 10.0 mph16.1 kmh 30.51 in1033.2 mb 0.00 in0.0 mm 0.00 in0.0 mm 0.00 in0.0 mm
12:38 PM 22.2°F-5.4°C 12.5°F-10.8°C 66% 4.0 mph WSW6.4 kmh WSW 10.0 mph16.1 kmh 30.51 in1033.2 mb 0.00 in0.0 mm 0.00 in0.0 mm 0.00 in0.0 mm
12:43 PM 22.5°F-5.3°C 12.8°F-10.7°C 66% 4.0 mph SW6.4 kmh SW 8.0 mph12.9 kmh 30.50 in1032.8 mb 0.00 in0.0 mm 0.00 in0.0 mm 0.00 in0.0 mm
12:48 PM 22.7°F-5.2°C 12.6°F-10.8°C 65% 4.0 mph SSW6.4 kmh SSW 9.0 mph14.5 kmh 30.50 in1032.8 mb 0.00 in0.0 mm 0.00 in0.0 mm 0.00 in0.0 mm
12:53 PM 22.6°F-5.2°C 12.5°F-10.8°C 65% 4.0 mph SSW6.4 kmh SSW 9.0 mph14.5 kmh 30.50 in1032.8 mb 0.00 in0.0 mm 0.00 in0.0 mm 0.00 in0.0 mm
12:58 PM 22.7°F-5.2°C 12.6°F-10.8°C 65% 3.0 mph SW4.8 kmh SW 9.0 mph14.5 kmh 30.49 in1032.5 mb 0.00 in0.0 mm 0.00 in0.0 mm 0.00 in0.0 mm
01:03 PM 22.9°F-5.1°C 12.8°F-10.7°C 65% 4.0 mph SSW6.4 kmh SSW 12.0 mph19.3 kmh 30.49 in1032.5 mb 0.00 in0.0 mm 0.00 in0.0 mm 0.00 in0.0 mm
01:08 PM 23.0°F-5.0°C 12.5°F-10.8°C 64% 5.0 mph SW8.0 kmh SW 12.0 mph19.3 kmh 30.49 in1032.5 mb 0.00 in0.0 mm 0.00 in0.0 mm 0.00 in0.0 mm
01:13 PM 22.1°F-5.5°C 11.7°F-11.3°C 64% 4.0 mph SW6.4 kmh SW 12.0 mph19.3 kmh 30.49 in1032.5 mb 0.00 in0.0 mm 0.00 in0.0 mm 0.00 in0.0 mm
01:18 PM 19.9°F-6.7°C 10.6°F-11.9°C 67% 6.0 mph SW9.7 kmh SW 12.0 mph19.3 kmh 30.49 in1032.5 mb 0.00 in0.0 mm 0.00 in0.0 mm 0.00 in0.0 mm
01:23 PM 19.7°F-6.8°C 11.1°F-11.6°C 69% 6.0 mph SSW9.7 kmh SSW 11.0 mph17.7 kmh 30.49 in1032.5 mb 0.00 in0.0 mm 0.00 in0.0 mm 0.00 in0.0 mm
01:28 PM 19.3°F-7.1°C 10.7°F-11.8°C 69% 5.0 mph SW8.0 kmh SW 11.0 mph17.7 kmh 30.48 in1032.2 mb 0.00 in0.0 mm 0.00 in0.0 mm 0.00 in0.0 mm
01:33 PM 19.5°F-6.9°C 11.3°F-11.5°C 70% 4.0 mph SW6.4 kmh SW 9.0 mph14.5 kmh 30.48 in1032.2 mb 0.00 in0.0 mm 0.00 in0.0 mm 0.00 in0.0 mm
01:38 PM 19.6°F-6.9°C 11.4°F-11.4°C 70% 7.0 mph S11.3 kmh S 9.0 mph14.5 kmh 30.48 in1032.2 mb 0.00 in0.0 mm 0.00 in0.0 mm 0.00 in0.0 mm
01:43 PM 18.8°F-7.3°C 10.6°F-11.9°C 70% 5.0 mph S8.0 kmh S 17.0 mph27.4 kmh 30.48 in1032.2 mb 0.00 in0.0 mm 0.00 in0.0 mm 0.00 in0.0 mm
01:48 PM 18.7°F-7.4°C 10.8°F-11.8°C 71% 7.0 mph S11.3 kmh S 17.0 mph27.4 kmh 30.48 in1032.2 mb 0.00 in0.0 mm 0.00 in0.0 mm 0.00 in0.0 mm
01:53 PM 18.9°F-7.3°C 11.0°F-11.7°C 71% 5.0 mph W8.0 kmh W 17.0 mph27.4 kmh 30.48 in1032.2 mb 0.00 in0.0 mm 0.00 in0.0 mm 0.00 in0.0 mm
01:58 PM 19.1°F-7.2°C 11.2°F-11.6°C 71% 7.0 mph SSW11.3 kmh SSW 17.0 mph27.4 kmh 30.48 in1032.2 mb 0.00 in0.0 mm 0.00 in0.0 mm 0.00 in0.0 mm
02:03 PM 18.9°F-7.3°C 10.7°F-11.8°C 70% 8.0 mph SW12.9 kmh SW 11.0 mph17.7 kmh 30.47 in1031.8 mb 0.00 in0.0 mm 0.00 in0.0 mm 0.00 in0.0 mm
02:08 PM 18.7°F-7.4°C 10.8°F-11.8°C 71% 6.0 mph SW9.7 kmh SW 11.0 mph17.7 kmh 30.48 in1032.2 mb 0.00 in0.0 mm 0.00 in0.0 mm 0.00 in0.0 mm
02:13 PM 18.7°F-7.4°C 10.8°F-11.8°C 71% 4.0 mph SW6.4 kmh SW 10.0 mph16.1 kmh 30.47 in1031.8 mb 0.00 in0.0 mm 0.00 in0.0 mm 0.00 in0.0 mm
02:18 PM 18.6°F-7.4°C 10.7°F-11.8°C 71% 3.0 mph SW4.8 kmh SW 11.0 mph17.7 kmh 30.47 in1031.8 mb 0.00 in0.0 mm 0.00 in0.0 mm 0.00 in0.0 mm
02:23 PM 18.6°F-7.4°C 10.7°F-11.8°C 71% 3.0 mph SW4.8 kmh SW 12.0 mph19.3 kmh 30.47 in1031.8 mb 0.00 in0.0 mm 0.00 in0.0 mm 0.00 in0.0 mm
02:28 PM 19.2°F-7.1°C 11.0°F-11.7°C 70% 7.0 mph SW11.3 kmh SW 12.0 mph19.3 kmh 30.47 in1031.8 mb 0.00 in0.0 mm 0.00 in0.0 mm 0.00 in0.0 mm
02:33 PM 19.2°F-7.1°C 10.6°F-11.9°C 69% 4.0 mph SW6.4 kmh SW 12.0 mph19.3 kmh 30.47 in1031.8 mb 0.00 in0.0 mm 0.00 in0.0 mm 0.00 in0.0 mm
02:38 PM 19.2°F-7.1°C 11.0°F-11.7°C 70% 4.0 mph SW6.4 kmh SW 12.0 mph19.3 kmh 30.47 in1031.8 mb 0.00 in0.0 mm 0.00 in0.0 mm 0.00 in0.0 mm
02:43 PM 19.4°F-7.0°C 11.2°F-11.6°C 70% 5.0 mph SW8.0 kmh SW 8.0 mph12.9 kmh 30.47 in1031.8 mb 0.00 in0.0 mm 0.00 in0.0 mm 0.00 in0.0 mm
02:48 PM 19.3°F-7.1°C 11.1°F-11.6°C 70% 4.0 mph SW6.4 kmh SW 12.0 mph19.3 kmh 30.47 in1031.8 mb 0.00 in0.0 mm 0.00 in0.0 mm 0.00 in0.0 mm
02:53 PM 19.1°F-7.2°C 10.9°F-11.7°C 70% 5.0 mph SSW8.0 kmh SSW 12.0 mph19.3 kmh 30.47 in1031.8 mb 0.00 in0.0 mm 0.00 in0.0 mm 0.00 in0.0 mm
02:58 PM 19.2°F-7.1°C 11.0°F-11.7°C 70% 4.0 mph SW6.4 kmh SW 12.0 mph19.3 kmh 30.47 in1031.8 mb 0.00 in0.0 mm 0.00 in0.0 mm 0.00 in0.0 mm
03:03 PM 19.2°F-7.1°C 11.0°F-11.7°C 70% 4.0 mph SW6.4 kmh SW 12.0 mph19.3 kmh 30.47 in1031.8 mb 0.00 in0.0 mm 0.00 in0.0 mm 0.00 in0.0 mm
03:08 PM 19.2°F-7.1°C 11.0°F-11.7°C 70% 5.0 mph SW8.0 kmh SW 10.0 mph16.1 kmh 30.47 in1031.8 mb 0.00 in0.0 mm 0.00 in0.0 mm 0.00 in0.0 mm
03:13 PM 19.3°F-7.1°C 11.4°F-11.4°C 71% 5.0 mph SSW8.0 kmh SSW 11.0 mph17.7 kmh 30.47 in1031.8 mb 0.00 in0.0 mm 0.00 in0.0 mm 0.00 in0.0 mm
03:18 PM 19.2°F-7.1°C 11.3°F-11.5°C 71% 4.0 mph SW6.4 kmh SW 11.0 mph17.7 kmh 30.47 in1031.8 mb 0.00 in0.0 mm 0.00 in0.0 mm 0.00 in0.0 mm
03:23 PM 19.1°F-7.2°C 11.2°F-11.6°C 71% 5.0 mph WSW8.0 kmh WSW 11.0 mph17.7 kmh 30.47 in1031.8 mb 0.00 in0.0 mm 0.00 in0.0 mm 0.00 in0.0 mm
03:28 PM 19.1°F-7.2°C 11.2°F-11.6°C 71% 5.0 mph S8.0 kmh S 11.0 mph17.7 kmh 30.47 in1031.8 mb 0.00 in0.0 mm 0.00 in0.0 mm 0.00 in0.0 mm
03:33 PM 19.1°F-7.2°C 11.2°F-11.6°C 71% 3.0 mph SW4.8 kmh SW 11.0 mph17.7 kmh 30.47 in1031.8 mb 0.00 in0.0 mm 0.00 in0.0 mm 0.00 in0.0 mm
03:38 PM 19.2°F-7.1°C 11.3°F-11.5°C 71% 6.0 mph SW9.7 kmh SW 11.0 mph17.7 kmh 30.46 in1031.5 mb 0.00 in0.0 mm 0.00 in0.0 mm 0.00 in0.0 mm
03:43 PM 19.2°F-7.1°C 11.0°F-11.7°C 70% 4.0 mph WSW6.4 kmh WSW 11.0 mph17.7 kmh 30.46 in1031.5 mb 0.00 in0.0 mm 0.00 in0.0 mm 0.00 in0.0 mm
03:48 PM 19.2°F-7.1°C 11.3°F-11.5°C 71% 5.0 mph WSW8.0 kmh WSW 12.0 mph19.3 kmh 30.46 in1031.5 mb 0.00 in0.0 mm 0.00 in0.0 mm 0.00 in0.0 mm
03:53 PM 19.1°F-7.2°C 10.9°F-11.7°C 70% 4.0 mph WSW6.4 kmh WSW 12.0 mph19.3 kmh 30.46 in1031.5 mb 0.00 in0.0 mm 0.00 in0.0 mm 0.00 in0.0 mm
03:58 PM 19.1°F-7.2°C 10.9°F-11.7°C 70% 6.0 mph SW9.7 kmh SW 12.0 mph19.3 kmh 30.46 in1031.5 mb 0.00 in0.0 mm 0.00 in0.0 mm 0.00 in0.0 mm
04:03 PM 19.1°F-7.2°C 10.9°F-11.7°C 70% 3.0 mph WSW4.8 kmh WSW 14.0 mph22.5 kmh 30.46 in1031.5 mb 0.00 in0.0 mm 0.00 in0.0 mm 0.00 in0.0 mm
04:08 PM 19.1°F-7.2°C 10.9°F-11.7°C 70% 3.0 mph WSW4.8 kmh WSW 14.0 mph22.5 kmh 30.45 in1031.2 mb 0.00 in0.0 mm 0.00 in0.0 mm 0.00 in0.0 mm
04:13 PM 19.1°F-7.2°C 10.9°F-11.7°C 70% 6.0 mph SW9.7 kmh SW 14.0 mph22.5 kmh 30.46 in1031.5 mb 0.00 in0.0 mm 0.00 in0.0 mm 0.00 in0.0 mm
04:18 PM 19.1°F-7.2°C 10.9°F-11.7°C 70% 4.0 mph SW6.4 kmh SW 14.0 mph22.5 kmh 30.46 in1031.5 mb 0.00 in0.0 mm 0.00 in0.0 mm 0.00 in0.0 mm
04:23 PM 19.1°F-7.2°C 10.9°F-11.7°C 70% 5.0 mph WSW8.0 kmh WSW 11.0 mph17.7 kmh 30.45 in1031.2 mb 0.00 in0.0 mm 0.00 in0.0 mm 0.00 in0.0 mm
04:28 PM 19.1°F-7.2°C 10.9°F-11.7°C 70% 3.0 mph SW4.8 kmh SW 11.0 mph17.7 kmh 30.45 in1031.2 mb 0.00 in0.0 mm 0.00 in0.0 mm 0.00 in0.0 mm
04:33 PM 19.2°F-7.1°C 11.0°F-11.7°C 70% 5.0 mph SW8.0 kmh SW 11.0 mph17.7 kmh 30.45 in1031.2 mb 0.00 in0.0 mm 0.00 in0.0 mm 0.00 in0.0 mm
04:38 PM 19.1°F-7.2°C 10.5°F-11.9°C 69% 4.0 mph SW6.4 kmh SW 11.0 mph17.7 kmh 30.44 in1030.8 mb 0.00 in0.0 mm 0.00 in0.0 mm 0.00 in0.0 mm
04:43 PM 19.0°F-7.2°C 10.5°F-11.9°C 69% 4.0 mph SSW6.4 kmh SSW 11.0 mph17.7 kmh 30.44 in1030.8 mb 0.00 in0.0 mm 0.00 in0.0 mm 0.00 in0.0 mm
04:48 PM 18.9°F-7.3°C 10.4°F-12.0°C 69% 9.0 mph SSW14.5 kmh SSW 10.0 mph16.1 kmh 30.44 in1030.8 mb 0.00 in0.0 mm 0.00 in0.0 mm 0.00 in0.0 mm
04:53 PM 18.7°F-7.4°C 10.2°F-12.1°C 69% 4.0 mph SW6.4 kmh SW 10.0 mph16.1 kmh 30.44 in1030.8 mb 0.00 in0.0 mm 0.00 in0.0 mm 0.00 in0.0 mm
04:58 PM 18.6°F-7.4°C 10.1°F-12.2°C 69% 8.0 mph S12.9 kmh S 11.0 mph17.7 kmh 30.44 in1030.8 mb 0.00 in0.0 mm 0.00 in0.0 mm 0.00 in0.0 mm
05:03 PM 18.5°F-7.5°C 10.3°F-12.1°C 70% 4.0 mph SW6.4 kmh SW 12.0 mph19.3 kmh 30.44 in1030.8 mb 0.00 in0.0 mm 0.00 in0.0 mm 0.00 in0.0 mm
05:08 PM 18.4°F-7.6°C 10.2°F-12.1°C 70% 7.0 mph SW11.3 kmh SW 17.0 mph27.4 kmh 30.44 in1030.8 mb 0.00 in0.0 mm 0.00 in0.0 mm 0.00 in0.0 mm
05:13 PM 18.2°F-7.7°C 10.0°F-12.2°C 70% 7.0 mph WSW11.3 kmh WSW 17.0 mph27.4 kmh 30.44 in1030.8 mb 0.00 in0.0 mm 0.00 in0.0 mm 0.00 in0.0 mm
05:18 PM 18.0°F-7.8°C 9.8°F-12.3°C 70% 7.0 mph SW11.3 kmh SW 17.0 mph27.4 kmh 30.44 in1030.8 mb 0.00 in0.0 mm 0.00 in0.0 mm 0.00 in0.0 mm
05:23 PM 17.8°F-7.9°C 9.6°F-12.4°C 70% 5.0 mph SW8.0 kmh SW 17.0 mph27.4 kmh 30.43 in1030.5 mb 0.00 in0.0 mm 0.00 in0.0 mm 0.00 in0.0 mm
05:28 PM 17.6°F-8.0°C 9.4°F-12.6°C 70% 5.0 mph SW8.0 kmh SW 12.0 mph19.3 kmh 30.43 in1030.5 mb 0.00 in0.0 mm 0.00 in0.0 mm 0.00 in0.0 mm
05:33 PM 17.5°F-8.1°C 9.3°F-12.6°C 70% 8.0 mph S12.9 kmh S 12.0 mph19.3 kmh 30.43 in1030.5 mb 0.00 in0.0 mm 0.00 in0.0 mm 0.00 in0.0 mm
05:38 PM 17.3°F-8.2°C 9.5°F-12.5°C 71% 7.0 mph SSW11.3 kmh SSW 14.0 mph22.5 kmh 30.43 in1030.5 mb 0.00 in0.0 mm 0.00 in0.0 mm 0.00 in0.0 mm
05:43 PM 17.2°F-8.2°C 9.4°F-12.6°C 71% 10.0 mph S16.1 kmh S 15.0 mph24.1 kmh 30.43 in1030.5 mb 0.00 in0.0 mm 0.00 in0.0 mm 0.00 in0.0 mm
05:48 PM 17.0°F-8.3°C 9.2°F-12.7°C 71% 5.0 mph SW8.0 kmh SW 15.0 mph24.1 kmh 30.43 in1030.5 mb 0.00 in0.0 mm 0.00 in0.0 mm 0.00 in0.0 mm
05:53 PM 16.9°F-8.4°C 9.1°F-12.7°C 71% 2.0 mph SW3.2 kmh SW 15.0 mph24.1 kmh 30.43 in1030.5 mb 0.00 in0.0 mm 0.00 in0.0 mm 0.00 in0.0 mm
05:58 PM 16.7°F-8.5°C 8.9°F-12.8°C 71% 3.0 mph SW4.8 kmh SW 15.0 mph24.1 kmh 30.43 in1030.5 mb 0.00 in0.0 mm 0.00 in0.0 mm 0.00 in0.0 mm
06:03 PM 16.5°F-8.6°C 8.7°F-12.9°C 71% 6.0 mph SW9.7 kmh SW 11.0 mph17.7 kmh 30.43 in1030.5 mb 0.00 in0.0 mm 0.00 in0.0 mm 0.00 in0.0 mm
06:08 PM 16.4°F-8.7°C 8.6°F-13.0°C 71% 8.0 mph S12.9 kmh S 13.0 mph20.9 kmh 30.43 in1030.5 mb 0.00 in0.0 mm 0.00 in0.0 mm 0.00 in0.0 mm
06:13 PM 16.2°F-8.8°C 8.4°F-13.1°C 71% 6.0 mph SW9.7 kmh SW 13.0 mph20.9 kmh 30.43 in1030.5 mb 0.00 in0.0 mm 0.00 in0.0 mm 0.00 in0.0 mm
06:18 PM 16.1°F-8.8°C 8.3°F-13.2°C 71% 5.0 mph SW8.0 kmh SW 13.0 mph20.9 kmh 30.43 in1030.5 mb 0.00 in0.0 mm 0.00 in0.0 mm 0.00 in0.0 mm
06:23 PM 15.9°F-8.9°C 8.1°F-13.3°C 71% 3.0 mph WSW4.8 kmh WSW 13.0 mph20.9 kmh 30.43 in1030.5 mb 0.00 in0.0 mm 0.00 in0.0 mm 0.00 in0.0 mm
06:28 PM 15.8°F-9.0°C 8.0°F-13.3°C 71% 10.0 mph SW16.1 kmh SW 15.0 mph24.1 kmh 30.43 in1030.5 mb 0.00 in0.0 mm 0.00 in0.0 mm 0.00 in0.0 mm
06:33 PM 15.7°F-9.1°C 7.9°F-13.4°C 71% 10.0 mph SW16.1 kmh SW 15.0 mph24.1 kmh 30.43 in1030.5 mb 0.00 in0.0 mm 0.00 in0.0 mm 0.00 in0.0 mm
06:38 PM 15.5°F-9.2°C 7.8°F-13.4°C 71% 9.0 mph SW14.5 kmh SW 15.0 mph24.1 kmh 30.43 in1030.5 mb 0.00 in0.0 mm 0.00 in0.0 mm 0.00 in0.0 mm
06:43 PM 15.4°F-9.2°C 7.7°F-13.5°C 71% 6.0 mph SSW9.7 kmh SSW 16.0 mph25.7 kmh 30.43 in1030.5 mb 0.00 in0.0 mm 0.00 in0.0 mm 0.00 in0.0 mm
06:48 PM 15.3°F-9.3°C 7.9°F-13.4°C 72% 6.0 mph WSW9.7 kmh WSW 16.0 mph25.7 kmh 30.42 in1030.1 mb 0.00 in0.0 mm 0.00 in0.0 mm 0.00 in0.0 mm
06:53 PM 15.2°F-9.3°C 7.8°F-13.4°C 72% 14.0 mph SW22.5 kmh SW 16.0 mph25.7 kmh 30.42 in1030.1 mb 0.00 in0.0 mm 0.00 in0.0 mm 0.00 in0.0 mm
06:58 PM 15.1°F-9.4°C 7.4°F-13.7°C 71% 15.0 mph SW24.1 kmh SW 16.0 mph25.7 kmh 30.42 in1030.1 mb 0.00 in0.0 mm 0.00 in0.0 mm 0.00 in0.0 mm
07:03 PM 15.1°F-9.4°C 7.7°F-13.5°C 72% 10.0 mph SW16.1 kmh SW 19.0 mph30.6 kmh 30.42 in1030.1 mb 0.00 in0.0 mm 0.00 in0.0 mm 0.00 in0.0 mm
07:08 PM 15.1°F-9.4°C 7.7°F-13.5°C 72% 10.0 mph SW16.1 kmh SW 19.0 mph30.6 kmh 30.41 in1029.8 mb 0.00 in0.0 mm 0.00 in0.0 mm 0.00 in0.0 mm
07:13 PM 15.1°F-9.4°C 7.7°F-13.5°C 72% 9.0 mph SW14.5 kmh SW 19.0 mph30.6 kmh 30.41 in1029.8 mb 0.00 in0.0 mm 0.00 in0.0 mm 0.00 in0.0 mm
07:18 PM 15.0°F-9.4°C 7.6°F-13.6°C 72% 12.0 mph SW19.3 kmh SW 19.0 mph30.6 kmh 30.41 in1029.8 mb 0.00 in0.0 mm 0.00 in0.0 mm 0.00 in0.0 mm
07:23 PM 15.0°F-9.4°C 7.6°F-13.6°C 72% 11.0 mph WSW17.7 kmh WSW 16.0 mph25.7 kmh 30.41 in1029.8 mb 0.00 in0.0 mm 0.00 in0.0 mm 0.00 in0.0 mm
07:28 PM 15.0°F-9.4°C 7.6°F-13.6°C 72% 10.0 mph SW16.1 kmh SW 16.0 mph25.7 kmh 30.40 in1029.5 mb 0.00 in0.0 mm 0.00 in0.0 mm 0.00 in0.0 mm
07:33 PM 15.0°F-9.4°C 7.6°F-13.6°C 72% 7.0 mph SSW11.3 kmh SSW 15.0 mph24.1 kmh 30.40 in1029.5 mb 0.00 in0.0 mm 0.00 in0.0 mm 0.00 in0.0 mm
07:38 PM 15.0°F-9.4°C 7.6°F-13.6°C 72% 11.0 mph SW17.7 kmh SW 15.0 mph24.1 kmh 30.40 in1029.5 mb 0.00 in0.0 mm 0.00 in0.0 mm 0.00 in0.0 mm
07:43 PM 14.9°F-9.5°C 7.5°F-13.6°C 72% 10.0 mph SW16.1 kmh SW 15.0 mph24.1 kmh 30.40 in1029.5 mb 0.00 in0.0 mm 0.00 in0.0 mm 0.00 in0.0 mm
07:48 PM 14.9°F-9.5°C 7.5°F-13.6°C 72% 7.0 mph SW11.3 kmh SW 15.0 mph24.1 kmh 30.40 in1029.5 mb 0.00 in0.0 mm 0.00 in0.0 mm 0.00 in0.0 mm
07:53 PM 14.9°F-9.5°C 7.5°F-13.6°C 72% 8.0 mph SW12.9 kmh SW 18.0 mph29.0 kmh 30.40 in1029.5 mb 0.00 in0.0 mm 0.00 in0.0 mm 0.00 in0.0 mm
07:58 PM 14.9°F-9.5°C 7.5°F-13.6°C 72% 18.0 mph SW29.0 kmh SW 18.0 mph29.0 kmh 30.40 in1029.5 mb 0.00 in0.0 mm 0.00 in0.0 mm 0.00 in0.0 mm
08:03 PM 14.9°F-9.5°C 7.5°F-13.6°C 72% 9.0 mph WSW14.5 kmh WSW 18.0 mph29.0 kmh 30.40 in1029.5 mb 0.00 in0.0 mm 0.00 in0.0 mm 0.00 in0.0 mm
08:08 PM 14.9°F-9.5°C 7.5°F-13.6°C 72% 3.0 mph SW4.8 kmh SW 18.0 mph29.0 kmh 30.40 in1029.5 mb 0.00 in0.0 mm 0.00 in0.0 mm 0.00 in0.0 mm
08:13 PM 14.9°F-9.5°C 7.5°F-13.6°C 72% 4.0 mph SW6.4 kmh SW 13.0 mph20.9 kmh 30.39 in1029.1 mb 0.00 in0.0 mm 0.00 in0.0 mm 0.00 in0.0 mm
08:18 PM 14.9°F-9.5°C 7.5°F-13.6°C 72% 5.0 mph SW8.0 kmh SW 13.0 mph20.9 kmh 30.39 in1029.1 mb 0.00 in0.0 mm 0.00 in0.0 mm 0.00 in0.0 mm
08:23 PM 14.8°F-9.6°C 7.4°F-13.7°C 72% 4.0 mph SW6.4 kmh SW 9.0 mph14.5 kmh 30.39 in1029.1 mb 0.00 in0.0 mm 0.00 in0.0 mm 0.00 in0.0 mm
08:28 PM 14.8°F-9.6°C 7.4°F-13.7°C 72% 4.0 mph WSW6.4 kmh WSW 9.0 mph14.5 kmh 30.39 in1029.1 mb 0.00 in0.0 mm 0.00 in0.0 mm 0.00 in0.0 mm
08:33 PM 14.7°F-9.6°C 7.3°F-13.7°C 72% 5.0 mph SW8.0 kmh SW 9.0 mph14.5 kmh 30.39 in1029.1 mb 0.00 in0.0 mm 0.00 in0.0 mm 0.00 in0.0 mm
08:38 PM 14.7°F-9.6°C 7.3°F-13.7°C 72% 4.0 mph SW6.4 kmh SW 9.0 mph14.5 kmh 30.39 in1029.1 mb 0.00 in0.0 mm 0.00 in0.0 mm 0.00 in0.0 mm
08:43 PM 14.7°F-9.6°C 7.3°F-13.7°C 72% 11.0 mph SW17.7 kmh SW 12.0 mph19.3 kmh 30.38 in1028.8 mb 0.00 in0.0 mm 0.00 in0.0 mm 0.00 in0.0 mm
08:48 PM 14.8°F-9.6°C 7.4°F-13.7°C 72% 4.0 mph SW6.4 kmh SW 12.0 mph19.3 kmh 30.38 in1028.8 mb 0.00 in0.0 mm 0.00 in0.0 mm 0.00 in0.0 mm
08:53 PM 14.8°F-9.6°C 7.4°F-13.7°C 72% 4.0 mph SW6.4 kmh SW 15.0 mph24.1 kmh 30.38 in1028.8 mb 0.00 in0.0 mm 0.00 in0.0 mm 0.00 in0.0 mm
08:58 PM 14.8°F-9.6°C 7.4°F-13.7°C 72% 3.0 mph SW4.8 kmh SW 15.0 mph24.1 kmh 30.38 in1028.8 mb 0.00 in0.0 mm 0.00 in0.0 mm 0.00 in0.0 mm
09:03 PM 14.7°F-9.6°C 7.3°F-13.7°C 72% 5.0 mph SW8.0 kmh SW 15.0 mph24.1 kmh 30.38 in1028.8 mb 0.00 in0.0 mm 0.00 in0.0 mm 0.00 in0.0 mm
09:08 PM 14.7°F-9.6°C 7.3°F-13.7°C 72% 6.0 mph SSW9.7 kmh SSW 15.0 mph24.1 kmh 30.38 in1028.8 mb 0.00 in0.0 mm 0.00 in0.0 mm 0.00 in0.0 mm
09:13 PM 14.7°F-9.6°C 7.3°F-13.7°C 72% 5.0 mph WSW8.0 kmh WSW 12.0 mph19.3 kmh 30.38 in1028.8 mb 0.00 in0.0 mm 0.00 in0.0 mm 0.00 in0.0 mm
09:18 PM 14.7°F-9.6°C 7.3°F-13.7°C 72% 5.0 mph SW8.0 kmh SW 12.0 mph19.3 kmh 30.38 in1028.8 mb 0.00 in0.0 mm 0.00 in0.0 mm 0.00 in0.0 mm
09:23 PM 14.7°F-9.6°C 7.3°F-13.7°C 72% 6.0 mph SSW9.7 kmh SSW 11.0 mph17.7 kmh 30.37 in1028.4 mb 0.00 in0.0 mm 0.00 in0.0 mm 0.00 in0.0 mm
09:28 PM 14.7°F-9.6°C 7.3°F-13.7°C 72% 4.0 mph SW6.4 kmh SW 13.0 mph20.9 kmh 30.37 in1028.4 mb 0.00 in0.0 mm 0.00 in0.0 mm 0.00 in0.0 mm
09:33 PM 14.7°F-9.6°C 7.3°F-13.7°C 72% 5.0 mph SW8.0 kmh SW 13.0 mph20.9 kmh 30.37 in1028.4 mb 0.00 in0.0 mm 0.00 in0.0 mm 0.00 in0.0 mm
09:38 PM 14.7°F-9.6°C 7.3°F-13.7°C 72% 4.0 mph SW6.4 kmh SW 13.0 mph20.9 kmh 30.36 in1028.1 mb 0.00 in0.0 mm 0.00 in0.0 mm 0.00 in0.0 mm
09:43 PM 14.7°F-9.6°C 7.3°F-13.7°C 72% 4.0 mph SW6.4 kmh SW 13.0 mph20.9 kmh 30.36 in1028.1 mb 0.00 in0.0 mm 0.00 in0.0 mm 0.00 in0.0 mm
09:48 PM 14.7°F-9.6°C 7.3°F-13.7°C 72% 4.0 mph SW6.4 kmh SW 10.0 mph16.1 kmh 30.36 in1028.1 mb 0.00 in0.0 mm 0.00 in0.0 mm 0.00 in0.0 mm
09:53 PM 14.7°F-9.6°C 7.3°F-13.7°C 72% 7.0 mph WSW11.3 kmh WSW 11.0 mph17.7 kmh 30.36 in1028.1 mb 0.00 in0.0 mm 0.00 in0.0 mm 0.00 in0.0 mm
09:58 PM 14.7°F-9.6°C 7.3°F-13.7°C 72% 7.0 mph S11.3 kmh S 11.0 mph17.7 kmh 30.36 in1028.1 mb 0.00 in0.0 mm 0.00 in0.0 mm 0.00 in0.0 mm
10:03 PM 14.8°F-9.6°C 7.1°F-13.8°C 71% 6.0 mph SW9.7 kmh SW 11.0 mph17.7 kmh 30.36 in1028.1 mb 0.00 in0.0 mm 0.00 in0.0 mm 0.00 in0.0 mm
10:08 PM 14.8°F-9.6°C 7.1°F-13.8°C 71% 11.0 mph SSW17.7 kmh SSW 11.0 mph17.7 kmh 30.35 in1027.8 mb 0.00 in0.0 mm 0.00 in0.0 mm 0.00 in0.0 mm
10:13 PM 14.8°F-9.6°C 7.1°F-13.8°C 71% 8.0 mph SW12.9 kmh SW 11.0 mph17.7 kmh 30.35 in1027.8 mb 0.00 in0.0 mm 0.00 in0.0 mm 0.00 in0.0 mm
10:18 PM 14.7°F-9.6°C 7.0°F-13.9°C 71% 4.0 mph SW6.4 kmh SW 11.0 mph17.7 kmh 30.35 in1027.8 mb 0.00 in0.0 mm 0.00 in0.0 mm 0.00 in0.0 mm
10:23 PM 14.7°F-9.6°C 7.0°F-13.9°C 71% 5.0 mph SW8.0 kmh SW 13.0 mph20.9 kmh 30.35 in1027.8 mb 0.00 in0.0 mm 0.00 in0.0 mm 0.00 in0.0 mm
10:28 PM 14.7°F-9.6°C 7.0°F-13.9°C 71% 4.0 mph SW6.4 kmh SW 13.0 mph20.9 kmh 30.35 in1027.8 mb 0.00 in0.0 mm 0.00 in0.0 mm 0.00 in0.0 mm
10:33 PM 14.7°F-9.6°C 7.0°F-13.9°C 71% 3.0 mph SW4.8 kmh SW 13.0 mph20.9 kmh 30.34 in1027.4 mb 0.00 in0.0 mm 0.00 in0.0 mm 0.00 in0.0 mm
10:38 PM 14.7°F-9.6°C 7.0°F-13.9°C 71% 5.0 mph SW8.0 kmh SW 13.0 mph20.9 kmh 30.34 in1027.4 mb 0.00 in0.0 mm 0.00 in0.0 mm 0.00 in0.0 mm
10:43 PM 14.6°F-9.7°C 6.9°F-13.9°C 71% 3.0 mph SW4.8 kmh SW 11.0 mph17.7 kmh 30.34 in1027.4 mb 0.00 in0.0 mm 0.00 in0.0 mm 0.00 in0.0 mm
10:48 PM 14.6°F-9.7°C 6.9°F-13.9°C 71% 4.0 mph SW6.4 kmh SW 11.0 mph17.7 kmh 30.34 in1027.4 mb 0.00 in0.0 mm 0.00 in0.0 mm 0.00 in0.0 mm
10:53 PM 14.6°F-9.7°C 6.9°F-13.9°C 71% 3.0 mph SW4.8 kmh SW 10.0 mph16.1 kmh 30.34 in1027.4 mb 0.00 in0.0 mm 0.00 in0.0 mm 0.00 in0.0 mm
10:58 PM 14.6°F-9.7°C 6.9°F-13.9°C 71% 4.0 mph WSW6.4 kmh WSW 10.0 mph16.1 kmh 30.33 in1027.1 mb 0.00 in0.0 mm 0.00 in0.0 mm 0.00 in0.0 mm
11:03 PM 14.7°F-9.6°C 7.0°F-13.9°C 71% 4.0 mph SW6.4 kmh SW 10.0 mph16.1 kmh 30.33 in1027.1 mb 0.00 in0.0 mm 0.00 in0.0 mm 0.00 in0.0 mm
11:08 PM 14.7°F-9.6°C 7.0°F-13.9°C 71% 4.0 mph SW6.4 kmh SW 10.0 mph16.1 kmh 30.33 in1027.1 mb 0.00 in0.0 mm 0.00 in0.0 mm 0.00 in0.0 mm
11:13 PM 14.8°F-9.6°C 7.1°F-13.8°C 71% 6.0 mph SW9.7 kmh SW 10.0 mph16.1 kmh 30.33 in1027.1 mb 0.00 in0.0 mm 0.00 in0.0 mm 0.00 in0.0 mm
11:18 PM 15.0°F-9.4°C 7.3°F-13.7°C 71% 5.0 mph SW8.0 kmh SW 11.0 mph17.7 kmh 30.32 in1026.8 mb 0.00 in0.0 mm 0.00 in0.0 mm 0.00 in0.0 mm
11:23 PM 15.1°F-9.4°C 7.4°F-13.7°C 71% 7.0 mph SW11.3 kmh SW 19.0 mph30.6 kmh 30.32 in1026.8 mb 0.00 in0.0 mm 0.00 in0.0 mm 0.00 in0.0 mm
11:28 PM 15.2°F-9.3°C 7.5°F-13.6°C 71% 6.0 mph SSW9.7 kmh SSW 19.0 mph30.6 kmh 30.32 in1026.8 mb 0.00 in0.0 mm 0.00 in0.0 mm 0.00 in0.0 mm
11:33 PM 15.3°F-9.3°C 7.6°F-13.6°C 71% 5.0 mph SW8.0 kmh SW 19.0 mph30.6 kmh 30.32 in1026.8 mb 0.00 in0.0 mm 0.00 in0.0 mm 0.00 in0.0 mm
11:38 PM 15.3°F-9.3°C 7.6°F-13.6°C 71% 5.0 mph SW8.0 kmh SW 19.0 mph30.6 kmh 30.32 in1026.8 mb 0.00 in0.0 mm 0.00 in0.0 mm 0.00 in0.0 mm
11:43 PM 15.5°F-9.2°C 7.4°F-13.7°C 70% 9.0 mph SW14.5 kmh SW 19.0 mph30.6 kmh 30.31 in1026.4 mb 0.00 in0.0 mm 0.00 in0.0 mm 0.00 in0.0 mm
11:48 PM 15.6°F-9.1°C 7.5°F-13.6°C 70% 6.0 mph WSW9.7 kmh WSW 19.0 mph30.6 kmh 30.31 in1026.4 mb 0.00 in0.0 mm 0.00 in0.0 mm 0.00 in0.0 mm
11:53 PM 15.6°F-9.1°C 7.5°F-13.6°C 70% 5.0 mph SSW8.0 kmh SSW 19.0 mph30.6 kmh 30.30 in1026.1 mb 0.00 in0.0 mm 0.00 in0.0 mm 0.00 in0.0 mm
11:58 PM 15.7°F-9.1°C 7.6°F-13.6°C 70% 6.0 mph SW9.7 kmh SW 19.0 mph30.6 kmh 30.30 in1026.1 mb 0.00 in0.0 mm 0.00 in0.0 mm 0.00 in0.0 mm